Km Tokyo — 3EWA4 — position and weather

sailwx.info

Track history (hours):
 
Tides and Currents Weather Stations Pressure Air Temp Water Temp Dewpoint Dewpoint Depression Visibility Wind Speed Wind Dir Waves Ship Positions

Km Tokyo

Last reported at 2017-Nov-18 19:21 UTC. Time now 2017-Nov-25 02:06 UTC.
Position N 48°31' W 126°09'.

Length 229 m; draft 14.3 m.

Type: Cargo ship. MMSI: 355623000.

Date/timePositionNaut miles runAvg speedWind from/ knotsBaromVisibWave heightAir tempDewpointWater temp
2017-Nov-18 19:21N 48°31' W 126°09'410.2
2017-Nov-18 18:59N 48°31' W 126°03'510.3
2017-Nov-18 18:28N 48°31' W 125°55'510.2
2017-Nov-18 18:00N 48°31' W 125°48'510.5
2017-Nov-18 17:30N 48°31' W 125°40'510.4
2017-Nov-18 17:00N 48°31' W 125°33'510.6
2017-Nov-18 16:31N 48°31' W 125°25'510.8
2017-Nov-18 16:01N 48°31' W 125°16'510.7
2017-Nov-18 15:31N 48°32' W 125°08'610.1
2017-Nov-18 14:53N 48°31' W 124°59'4 9.6
2017-Nov-18 14:30N 48°31' W 124°53'4 9.0
2017-Nov-18 14:01N 48°31' W 124°47'5 9.4
2017-Nov-18 13:31N 48°30' W 124°40'6 9.3
2017-Nov-18 12:52N 48°27' W 124°32'3 9.2
2017-Nov-18 12:30N 48°26' W 124°27'4 8.8
2017-Nov-18 12:00N 48°24' W 124°21'4 8.7
2017-Nov-18 11:30N 48°23' W 124°15'5 9.9
2017-Nov-18 11:01N 48°21' W 124°08'510.2
2017-Nov-18 10:30N 48°19' W 124°01'5 9.4
2017-Nov-18 10:01N 48°17' W 123°54'4 8.6
2017-Nov-18 09:31N 48°17' W 123°48'4 8.3
2017-Nov-18 09:00N 48°16' W 123°42'4 8.2
2017-Nov-18 08:30N 48°16' W 123°36'4 8.4
2017-Nov-18 08:00N 48°17' W 123°29'5 9.4
2017-Nov-18 07:30N 48°21' W 123°26'4 8.0
2017-Nov-18 07:01N 48°23' W 123°22'4 8.5
2017-Nov-18 06:31N 48°24' W 123°15'5 9.1
2017-Nov-18 06:01N 48°28' W 123°12'611.8
2017-Nov-18 05:31N 48°34' W 123°13'713.5
2017-Nov-18 05:01N 48°40' W 123°15'510.0
2017-Nov-18 04:31N 48°44' W 123°10'612.7
2017-Nov-18 04:00N 48°47' W 123°01'510.2
2017-Nov-18 03:31N 48°52' W 123°04'612.3
2017-Nov-18 03:00N 48°56' W 123°11'612.1
2017-Nov-18 02:31N 49°00' W 123°18'611.0
2017-Nov-18 02:00N 49°04' W 123°23'611.3
2017-Nov-18 01:31N 49°10' W 123°22'611.4
2017-Nov-18 01:00N 49°15' W 123°20'510.3
2017-Nov-18 00:30N 49°19' W 123°15'5 9.1
2017-Nov-18 00:01N 49°19' W 123°08'3 6.2
2017-Nov-17 23:30N 49°18' W 123°03'0 0.3
2017-Nov-17 22:53N 49°18' W 123°03'0 0.0
2017-Nov-17 22:23N 49°18' W 123°03'0 0.0
2017-Nov-17 21:59N 49°18' W 123°03'0 0.0
2017-Nov-17 21:29N 49°18' W 123°03'0 0.0
2017-Nov-17 20:59N 49°18' W 123°03'0 0.0
2017-Nov-17 20:29N 49°18' W 123°03'0 0.0
2017-Nov-17 19:59N 49°18' W 123°03'0 0.0
2017-Nov-17 19:29N 49°18' W 123°03'0 0.0
2017-Nov-17 18:59N 49°18' W 123°03'0 0.0
2017-Nov-17 18:29N 49°18' W 123°03'0 0.0
2017-Nov-17 17:59N 49°18' W 123°03'0 0.0
2017-Nov-17 17:29N 49°18' W 123°03'0 0.0
2017-Nov-17 16:59N 49°18' W 123°03'0 0.0
2017-Nov-17 16:29N 49°18' W 123°03'0 0.0
2017-Nov-17 15:53N 49°18' W 123°03'0 0.0
2017-Nov-17 15:29N 49°18' W 123°03'0 0.0
2017-Nov-17 14:59N 49°18' W 123°03'0 0.0
2017-Nov-17 14:29N 49°18' W 123°03'0 0.0
2017-Nov-17 13:53N 49°18' W 123°03'0 0.0
2017-Nov-17 13:29N 49°18' W 123°03'0 0.0
2017-Nov-17 12:59N 49°18' W 123°03'0 0.0
2017-Nov-17 12:29N 49°18' W 123°03'0 0.0
2017-Nov-17 11:59N 49°18' W 123°03'0 0.0
2017-Nov-17 11:23N 49°18' W 123°03'0 0.0
2017-Nov-17 10:53N 49°18' W 123°03'0 0.0
2017-Nov-17 10:29N 49°18' W 123°03'0 0.0
2017-Nov-17 09:56N 49°18' W 123°03'0 0.0
2017-Nov-17 09:20N 49°18' W 123°03'0 0.0
2017-Nov-17 08:59N 49°18' W 123°03'0 0.0
2017-Nov-17 08:29N 49°18' W 123°03'0 0.0
2017-Nov-17 07:59N 49°18' W 123°03'0 0.0
2017-Nov-17 07:29N 49°18' W 123°03'0 0.0
2017-Nov-17 06:59N 49°18' W 123°03'0 0.0
2017-Nov-17 06:29N 49°18' W 123°03'0 0.0
2017-Nov-17 05:59N 49°18' W 123°03'0 0.0
2017-Nov-17 05:29N 49°18' W 123°03'0 0.0
2017-Nov-17 04:59N 49°18' W 123°03'0 0.0
2017-Nov-17 04:29N 49°18' W 123°03'0 0.0
2017-Nov-17 03:59N 49°18' W 123°03'0 0.0
2017-Nov-17 03:29N 49°18' W 123°03'0 0.0
2017-Nov-17 02:59N 49°18' W 123°03'0 0.0
2017-Nov-17 02:29N 49°18' W 123°03'0 0.0
2017-Nov-17 01:59N 49°18' W 123°03'0 0.0
2017-Nov-17 01:29N 49°18' W 123°03'0 0.0
2017-Nov-17 00:59N 49°18' W 123°03'0 0.0
2017-Nov-17 00:29N 49°18' W 123°03'0 0.0
2017-Nov-16 23:59N 49°18' W 123°03'0 0.0
2017-Nov-16 23:26N 49°18' W 123°03'0 0.0
2017-Nov-16 22:59N 49°18' W 123°03'0 0.0
2017-Nov-16 22:29N 49°18' W 123°03'0 0.0
2017-Nov-16 21:59N 49°18' W 123°03'0 0.0
2017-Nov-16 21:29N 49°18' W 123°03'0 0.0
2017-Nov-16 20:59N 49°18' W 123°03'0 0.0
2017-Nov-16 20:29N 49°18' W 123°03'0 0.0
2017-Nov-16 19:59N 49°18' W 123°03'0 0.0
2017-Nov-16 19:29N 49°18' W 123°03'0 0.0
2017-Nov-16 18:59N 49°18' W 123°03'0 0.0
2017-Nov-16 18:29N 49°18' W 123°03'0 0.0
2017-Nov-16 17:59N 49°18' W 123°03'0 0.0
2017-Nov-16 17:29N 49°18' W 123°03'0 0.0
2017-Nov-16 16:59N 49°18' W 123°03'0 0.0
2017-Nov-16 16:29N 49°18' W 123°03'0 0.0
2017-Nov-16 15:59N 49°18' W 123°03'0 0.0
2017-Nov-16 15:29N 49°18' W 123°03'0 0.0
2017-Nov-16 14:59N 49°18' W 123°03'0 0.0
2017-Nov-16 14:29N 49°18' W 123°03'0 0.0
2017-Nov-16 13:59N 49°18' W 123°03'0 0.0
2017-Nov-16 13:29N 49°18' W 123°03'0 0.0
2017-Nov-16 12:59N 49°18' W 123°03'0 0.0
2017-Nov-16 12:29N 49°18' W 123°03'0 0.0
2017-Nov-16 11:59N 49°18' W 123°03'0 0.0
2017-Nov-16 11:29N 49°18' W 123°03'0 0.0
2017-Nov-16 10:59N 49°18' W 123°03'0 0.0
2017-Nov-16 10:29N 49°18' W 123°03'0 0.0
2017-Nov-16 09:56N 49°18' W 123°03'0 0.0
2017-Nov-16 09:29N 49°18' W 123°03'0 0.0
2017-Nov-16 08:59N 49°18' W 123°03'0 0.0
2017-Nov-16 08:29N 49°18' W 123°03'0 0.0
2017-Nov-16 07:59N 49°18' W 123°03'0 0.0
2017-Nov-16 07:23N 49°18' W 123°03'0 0.0
2017-Nov-16 06:59N 49°18' W 123°03'0 0.0
2017-Nov-16 06:29N 49°18' W 123°03'0 0.0
2017-Nov-16 05:59N 49°18' W 123°03'0 0.0
2017-Nov-16 05:29N 49°18' W 123°03'0 0.0
2017-Nov-16 04:59N 49°18' W 123°03'0 0.0
2017-Nov-16 04:29N 49°18' W 123°03'0 0.0
2017-Nov-16 03:59N 49°18' W 123°03'0 0.0
2017-Nov-16 03:29N 49°18' W 123°03'0 0.0
2017-Nov-16 02:59N 49°18' W 123°03'0 0.0
2017-Nov-16 02:29N 49°18' W 123°03'0 0.0
2017-Nov-16 01:59N 49°18' W 123°03'0 0.0
2017-Nov-16 01:11N 49°18' W 123°03'0 0.0
2017-Nov-16 00:59N 49°18' W 123°03'0 0.0
2017-Nov-16 00:29N 49°18' W 123°03'0 0.0
2017-Nov-15 23:59N 49°18' W 123°03'0 0.0
2017-Nov-15 23:29N 49°18' W 123°03'0 0.0
2017-Nov-15 22:59N 49°18' W 123°03'0 0.0
2017-Nov-15 22:29N 49°18' W 123°03'0 0.0
2017-Nov-15 21:59N 49°18' W 123°03'0 0.0
2017-Nov-15 21:29N 49°18' W 123°03'0 0.0
2017-Nov-15 20:59N 49°18' W 123°03'0 0.0
2017-Nov-15 20:29N 49°18' W 123°03'0 0.0
2017-Nov-15 19:56N 49°18' W 123°03'0 0.0
2017-Nov-15 19:29N 49°18' W 123°03'0 0.0
2017-Nov-15 18:59N 49°18' W 123°03'0 0.0
2017-Nov-15 18:29N 49°18' W 123°03'0 0.0
2017-Nov-15 17:59N 49°18' W 123°03'0 0.0
2017-Nov-15 17:29N 49°18' W 123°03'0 0.0
2017-Nov-15 16:59N 49°18' W 123°03'0 0.0
2017-Nov-15 16:29N 49°18' W 123°03'0 0.1
2017-Nov-15 16:00N 49°18' W 123°03'2 3.5
2017-Nov-15 15:30N 49°18' W 123°06'5 9.6
2017-Nov-15 15:00N 49°19' W 123°14'611.8
2017-Nov-15 14:30N 49°14' W 123°19'713.5
2017-Nov-15 14:00N 49°07' W 123°20'713.2
2017-Nov-15 13:30N 49°01' W 123°15'612.7
2017-Nov-15 13:00N 48°56' W 123°09'612.9
2017-Nov-15 12:30N 48°52' W 123°02'611.4
2017-Nov-15 12:00N 48°46' W 123°02'713.5
2017-Nov-15 11:30N 48°43' W 123°11'510.9
2017-Nov-15 11:00N 48°38' W 123°14'714.5
2017-Nov-15 10:30N 48°31' W 123°11'713.1
2017-Nov-15 10:00N 48°24' W 123°12'612.2
2017-Nov-15 09:30N 48°23' W 123°21'4 7.9
2017-Nov-15 09:00N 48°19' W 123°24'5 9.2
2017-Nov-15 08:30N 48°15' W 123°27'5 7.7
2017-Nov-15 07:52N 48°13' W 123°34'3 7.6
2017-Nov-15 07:26N 48°13' W 123°39'511.9
2017-Nov-15 07:00N 48°13' W 123°47'712.1
2017-Nov-15 06:22N 48°14' W 123°58'611.9
2017-Nov-15 05:52N 48°17' W 124°06'411.6
2017-Nov-15 05:30N 48°18' W 124°12'711.3
2017-Nov-15 04:55N 48°21' W 124°21'512.0
2017-Nov-15 04:30N 48°23' W 124°28'611.3
2017-Nov-15 04:00N 48°26' W 124°36'611.6
2017-Nov-15 03:30N 48°28' W 124°43'611.3
2017-Nov-15 02:58N 48°29' W 124°52'510.4
2017-Nov-15 02:30N 48°28' W 124°60'510.3
2017-Nov-15 02:00N 48°28' W 125°07'510.0
2017-Nov-15 01:30N 48°28' W 125°15'510.3
2017-Nov-15 01:00N 48°28' W 125°23'510.7
2017-Nov-15 00:30N 48°27' W 125°31'4 8.3
2017-Nov-15 00:00N 48°29' W 125°36'5 9.9
2017-Nov-14 23:30N 48°29' W 125°44'5 9.8
2017-Nov-14 23:00N 48°29' W 125°51'510.6
2017-Nov-14 22:30N 48°29' W 125°59'510.5
2017-Nov-14 22:00N 48°29' W 126°07'510.3
2017-Nov-14 21:30N 48°29' W 126°15'510.2
2017-Nov-14 21:00N 48°29' W 126°23'610.4
2017-Nov-14 20:29N 48°29' W 126°31'  
Track history (hours):
 
Tides and Currents Weather Stations Pressure Air Temp Water Temp Dewpoint Dewpoint Depression Visibility Wind Speed Wind Dir Waves Ship Positions

Km Tokyo

Last reported at 2017-Nov-18 19:21 UTC. Time now 2017-Nov-25 02:06 UTC.
Position N 48°31' W 126°09'.

Length 229 m; draft 14.3 m.

Type: Cargo ship. MMSI: 355623000.

Date/timePositionNaut miles runAvg speedWind from/ knotsBaromVisibWave heightAir tempDewpointWater temp
2017-Nov-18 19:21N 48°31' W 126°09'410.2
2017-Nov-18 18:59N 48°31' W 126°03'510.3
2017-Nov-18 18:28N 48°31' W 125°55'510.2
2017-Nov-18 18:00N 48°31' W 125°48'510.5
2017-Nov-18 17:30N 48°31' W 125°40'510.4
2017-Nov-18 17:00N 48°31' W 125°33'510.6
2017-Nov-18 16:31N 48°31' W 125°25'510.8
2017-Nov-18 16:01N 48°31' W 125°16'510.7
2017-Nov-18 15:31N 48°32' W 125°08'610.1
2017-Nov-18 14:53N 48°31' W 124°59'4 9.6
2017-Nov-18 14:30N 48°31' W 124°53'4 9.0
2017-Nov-18 14:01N 48°31' W 124°47'5 9.4
2017-Nov-18 13:31N 48°30' W 124°40'6 9.3
2017-Nov-18 12:52N 48°27' W 124°32'3 9.2
2017-Nov-18 12:30N 48°26' W 124°27'4 8.8
2017-Nov-18 12:00N 48°24' W 124°21'4 8.7
2017-Nov-18 11:30N 48°23' W 124°15'5 9.9
2017-Nov-18 11:01N 48°21' W 124°08'510.2
2017-Nov-18 10:30N 48°19' W 124°01'5 9.4
2017-Nov-18 10:01N 48°17' W 123°54'4 8.6
2017-Nov-18 09:31N 48°17' W 123°48'4 8.3
2017-Nov-18 09:00N 48°16' W 123°42'4 8.2
2017-Nov-18 08:30N 48°16' W 123°36'4 8.4
2017-Nov-18 08:00N 48°17' W 123°29'5 9.4
2017-Nov-18 07:30N 48°21' W 123°26'4 8.0
2017-Nov-18 07:01N 48°23' W 123°22'4 8.5
2017-Nov-18 06:31N 48°24' W 123°15'5 9.1
2017-Nov-18 06:01N 48°28' W 123°12'611.8
2017-Nov-18 05:31N 48°34' W 123°13'713.5
2017-Nov-18 05:01N 48°40' W 123°15'510.0
2017-Nov-18 04:31N 48°44' W 123°10'612.7
2017-Nov-18 04:00N 48°47' W 123°01'510.2
2017-Nov-18 03:31N 48°52' W 123°04'612.3
2017-Nov-18 03:00N 48°56' W 123°11'612.1
2017-Nov-18 02:31N 49°00' W 123°18'611.0
2017-Nov-18 02:00N 49°04' W 123°23'611.3
2017-Nov-18 01:31N 49°10' W 123°22'611.4
2017-Nov-18 01:00N 49°15' W 123°20'510.3
2017-Nov-18 00:30N 49°19' W 123°15'5 9.1
2017-Nov-18 00:01N 49°19' W 123°08'3 6.2
2017-Nov-17 23:30N 49°18' W 123°03'0 0.3
2017-Nov-17 22:53N 49°18' W 123°03'0 0.0
2017-Nov-17 22:23N 49°18' W 123°03'0 0.0
2017-Nov-17 21:59N 49°18' W 123°03'0 0.0
2017-Nov-17 21:29N 49°18' W 123°03'0 0.0
2017-Nov-17 20:59N 49°18' W 123°03'0 0.0
2017-Nov-17 20:29N 49°18' W 123°03'0 0.0
2017-Nov-17 19:59N 49°18' W 123°03'0 0.0
2017-Nov-17 19:29N 49°18' W 123°03'0 0.0
2017-Nov-17 18:59N 49°18' W 123°03'0 0.0
2017-Nov-17 18:29N 49°18' W 123°03'0 0.0
2017-Nov-17 17:59N 49°18' W 123°03'0 0.0
2017-Nov-17 17:29N 49°18' W 123°03'0 0.0
2017-Nov-17 16:59N 49°18' W 123°03'0 0.0
2017-Nov-17 16:29N 49°18' W 123°03'0 0.0
2017-Nov-17 15:53N 49°18' W 123°03'0 0.0
2017-Nov-17 15:29N 49°18' W 123°03'0 0.0
2017-Nov-17 14:59N 49°18' W 123°03'0 0.0
2017-Nov-17 14:29N 49°18' W 123°03'0 0.0
2017-Nov-17 13:53N 49°18' W 123°03'0 0.0
2017-Nov-17 13:29N 49°18' W 123°03'0 0.0
2017-Nov-17 12:59N 49°18' W 123°03'0 0.0
2017-Nov-17 12:29N 49°18' W 123°03'0 0.0
2017-Nov-17 11:59N 49°18' W 123°03'0 0.0
2017-Nov-17 11:23N 49°18' W 123°03'0 0.0
2017-Nov-17 10:53N 49°18' W 123°03'0 0.0
2017-Nov-17 10:29N 49°18' W 123°03'0 0.0
2017-Nov-17 09:56N 49°18' W 123°03'0 0.0
2017-Nov-17 09:20N 49°18' W 123°03'0 0.0
2017-Nov-17 08:59N 49°18' W 123°03'0 0.0
2017-Nov-17 08:29N 49°18' W 123°03'0 0.0
2017-Nov-17 07:59N 49°18' W 123°03'0 0.0
2017-Nov-17 07:29N 49°18' W 123°03'0 0.0
2017-Nov-17 06:59N 49°18' W 123°03'0 0.0
2017-Nov-17 06:29N 49°18' W 123°03'0 0.0
2017-Nov-17 05:59N 49°18' W 123°03'0 0.0
2017-Nov-17 05:29N 49°18' W 123°03'0 0.0
2017-Nov-17 04:59N 49°18' W 123°03'0 0.0
2017-Nov-17 04:29N 49°18' W 123°03'0 0.0
2017-Nov-17 03:59N 49°18' W 123°03'0 0.0
2017-Nov-17 03:29N 49°18' W 123°03'0 0.0
2017-Nov-17 02:59N 49°18' W 123°03'0 0.0
2017-Nov-17 02:29N 49°18' W 123°03'0 0.0
2017-Nov-17 01:59N 49°18' W 123°03'0 0.0
2017-Nov-17 01:29N 49°18' W 123°03'0 0.0
2017-Nov-17 00:59N 49°18' W 123°03'0 0.0
2017-Nov-17 00:29N 49°18' W 123°03'0 0.0
2017-Nov-16 23:59N 49°18' W 123°03'0 0.0
2017-Nov-16 23:26N 49°18' W 123°03'0 0.0
2017-Nov-16 22:59N 49°18' W 123°03'0 0.0
2017-Nov-16 22:29N 49°18' W 123°03'0 0.0
2017-Nov-16 21:59N 49°18' W 123°03'0 0.0
2017-Nov-16 21:29N 49°18' W 123°03'0 0.0
2017-Nov-16 20:59N 49°18' W 123°03'0 0.0
2017-Nov-16 20:29N 49°18' W 123°03'0 0.0
2017-Nov-16 19:59N 49°18' W 123°03'0 0.0
2017-Nov-16 19:29N 49°18' W 123°03'0 0.0
2017-Nov-16 18:59N 49°18' W 123°03'0 0.0
2017-Nov-16 18:29N 49°18' W 123°03'0 0.0
2017-Nov-16 17:59N 49°18' W 123°03'0 0.0
2017-Nov-16 17:29N 49°18' W 123°03'0 0.0
2017-Nov-16 16:59N 49°18' W 123°03'0 0.0
2017-Nov-16 16:29N 49°18' W 123°03'0 0.0
2017-Nov-16 15:59N 49°18' W 123°03'0 0.0
2017-Nov-16 15:29N 49°18' W 123°03'0 0.0
2017-Nov-16 14:59N 49°18' W 123°03'0 0.0
2017-Nov-16 14:29N 49°18' W 123°03'0 0.0
2017-Nov-16 13:59N 49°18' W 123°03'0 0.0
2017-Nov-16 13:29N 49°18' W 123°03'0 0.0
2017-Nov-16 12:59N 49°18' W 123°03'0 0.0
2017-Nov-16 12:29N 49°18' W 123°03'0 0.0
2017-Nov-16 11:59N 49°18' W 123°03'0 0.0
2017-Nov-16 11:29N 49°18' W 123°03'0 0.0
2017-Nov-16 10:59N 49°18' W 123°03'0 0.0
2017-Nov-16 10:29N 49°18' W 123°03'0 0.0
2017-Nov-16 09:56N 49°18' W 123°03'0 0.0
2017-Nov-16 09:29N 49°18' W 123°03'0 0.0
2017-Nov-16 08:59N 49°18' W 123°03'0 0.0
2017-Nov-16 08:29N 49°18' W 123°03'0 0.0
2017-Nov-16 07:59N 49°18' W 123°03'0 0.0
2017-Nov-16 07:23N 49°18' W 123°03'0 0.0
2017-Nov-16 06:59N 49°18' W 123°03'0 0.0
2017-Nov-16 06:29N 49°18' W 123°03'0 0.0
2017-Nov-16 05:59N 49°18' W 123°03'0 0.0
2017-Nov-16 05:29N 49°18' W 123°03'0 0.0
2017-Nov-16 04:59N 49°18' W 123°03'0 0.0
2017-Nov-16 04:29N 49°18' W 123°03'0 0.0
2017-Nov-16 03:59N 49°18' W 123°03'0 0.0
2017-Nov-16 03:29N 49°18' W 123°03'0 0.0
2017-Nov-16 02:59N 49°18' W 123°03'0 0.0
2017-Nov-16 02:29N 49°18' W 123°03'0 0.0
2017-Nov-16 01:59N 49°18' W 123°03'0 0.0
2017-Nov-16 01:11N 49°18' W 123°03'0 0.0
2017-Nov-16 00:59N 49°18' W 123°03'0 0.0
2017-Nov-16 00:29N 49°18' W 123°03'0 0.0
2017-Nov-15 23:59N 49°18' W 123°03'0 0.0
2017-Nov-15 23:29N 49°18' W 123°03'0 0.0
2017-Nov-15 22:59N 49°18' W 123°03'0 0.0
2017-Nov-15 22:29N 49°18' W 123°03'0 0.0
2017-Nov-15 21:59N 49°18' W 123°03'0 0.0
2017-Nov-15 21:29N 49°18' W 123°03'0 0.0
2017-Nov-15 20:59N 49°18' W 123°03'0 0.0
2017-Nov-15 20:29N 49°18' W 123°03'0 0.0
2017-Nov-15 19:56N 49°18' W 123°03'0 0.0
2017-Nov-15 19:29N 49°18' W 123°03'0 0.0
2017-Nov-15 18:59N 49°18' W 123°03'0 0.0
2017-Nov-15 18:29N 49°18' W 123°03'0 0.0
2017-Nov-15 17:59N 49°18' W 123°03'0 0.0
2017-Nov-15 17:29N 49°18' W 123°03'0 0.0
2017-Nov-15 16:59N 49°18' W 123°03'0 0.0
2017-Nov-15 16:29N 49°18' W 123°03'0 0.1
2017-Nov-15 16:00N 49°18' W 123°03'2 3.5
2017-Nov-15 15:30N 49°18' W 123°06'5 9.6
2017-Nov-15 15:00N 49°19' W 123°14'611.8
2017-Nov-15 14:30N 49°14' W 123°19'713.5
2017-Nov-15 14:00N 49°07' W 123°20'713.2
2017-Nov-15 13:30N 49°01' W 123°15'612.7
2017-Nov-15 13:00N 48°56' W 123°09'612.9
2017-Nov-15 12:30N 48°52' W 123°02'611.4
2017-Nov-15 12:00N 48°46' W 123°02'713.5
2017-Nov-15 11:30N 48°43' W 123°11'510.9
2017-Nov-15 11:00N 48°38' W 123°14'714.5
2017-Nov-15 10:30N 48°31' W 123°11'713.1
2017-Nov-15 10:00N 48°24' W 123°12'612.2
2017-Nov-15 09:30N 48°23' W 123°21'4 7.9
2017-Nov-15 09:00N 48°19' W 123°24'5 9.2
2017-Nov-15 08:30N 48°15' W 123°27'5 7.7
2017-Nov-15 07:52N 48°13' W 123°34'3 7.6
2017-Nov-15 07:26N 48°13' W 123°39'511.9
2017-Nov-15 07:00N 48°13' W 123°47'712.1
2017-Nov-15 06:22N 48°14' W 123°58'611.9
2017-Nov-15 05:52N 48°17' W 124°06'411.6
2017-Nov-15 05:30N 48°18' W 124°12'711.3
2017-Nov-15 04:55N 48°21' W 124°21'512.0
2017-Nov-15 04:30N 48°23' W 124°28'611.3
2017-Nov-15 04:00N 48°26' W 124°36'611.6
2017-Nov-15 03:30N 48°28' W 124°43'611.3
2017-Nov-15 02:58N 48°29' W 124°52'510.4
2017-Nov-15 02:30N 48°28' W 124°60'510.3
2017-Nov-15 02:00N 48°28' W 125°07'510.0
2017-Nov-15 01:30N 48°28' W 125°15'510.3
2017-Nov-15 01:00N 48°28' W 125°23'510.7
2017-Nov-15 00:30N 48°27' W 125°31'4 8.3
2017-Nov-15 00:00N 48°29' W 125°36'5 9.9
2017-Nov-14 23:30N 48°29' W 125°44'5 9.8
2017-Nov-14 23:00N 48°29' W 125°51'510.6
2017-Nov-14 22:30N 48°29' W 125°59'510.5
2017-Nov-14 22:00N 48°29' W 126°07'510.3
2017-Nov-14 21:30N 48°29' W 126°15'510.2
2017-Nov-14 21:00N 48°29' W 126°23'610.4
2017-Nov-14 20:29N 48°29' W 126°31'  

Dump ship's entire track history